Decoded Metar for LKMT (OSTRAVA in CZECH REPUBLIC) (IATA:OSR) | Meteo·Mobile Aviation Weather
aviador You're here:

LKMT Decoded Metar

OSTRAVA in CZECH REPUBLIC
Report Time2018-09-25 18:30:00
UTC Time2018-09-25 18:44:34
Flight Rules vfr VFR
Wind170° at 02 kt
W.Decomp.*RWY 22: 1.2 kt HW 1.6 kt LCW
W.Rank170° ranks 20
Current wind is below 170° avg. (4.7)
Visibility9999 m
Phenomena:N/A
Clouds:N/A
Expected CloudBase > 2,800 ft AGL from Temp-Dew spread
CeilingNone
Temp07°C (ISA -6)
Dew Point00°C (61% RH)
AAT4.3°C
QNH1037 hPa
Density Alt-640 ft
Elevation840 ft
Report Wrong Elevation
Raw Report
LKMT 251830Z 17002KT CAVOK 07/00 Q1037 NOSIG=

Extra information for LKMT:More info

Metar Taf Metar & Taf Last 4 Metars F.Rules Stats Wind Profile Meteogram Temp Stats Airport Information Weather charts Add Link Nearby VenuesMetar ALERT Operation Metar Decoded Social comments